sensor_id;sensor_type;location;lat;lon;timestamp;P1;durP1;ratioP1;P2;durP2;ratioP2
20669;SDS011;10494;50.868;4.180;2023-02-01T00:00:03;40.70;;;11.37;;
20669;SDS011;10494;50.868;4.180;2023-02-01T00:02:29;33.33;;;10.87;;
20669;SDS011;10494;50.868;4.180;2023-02-01T00:04:55;37.63;;;10.30;;
20669;SDS011;10494;50.868;4.180;2023-02-01T00:07:20;33.50;;;11.57;;
20669;SDS011;10494;50.868;4.180;2023-02-01T00:09:46;34.57;;;9.87;;
20669;SDS011;10494;50.868;4.180;2023-02-01T00:12:11;29.77;;;9.43;;
20669;SDS011;10494;50.868;4.180;2023-02-01T00:14:37;29.07;;;9.80;;
20669;SDS011;10494;50.868;4.180;2023-02-01T00:17:07;39.63;;;9.67;;
20669;SDS011;10494;50.868;4.180;2023-02-01T00:19:33;30.07;;;8.73;;
20669;SDS011;10494;50.868;4.180;2023-02-01T00:21:59;43.17;;;8.63;;
20669;SDS011;10494;50.868;4.180;2023-02-01T00:24:25;24.53;;;8.17;;
20669;SDS011;10494;50.868;4.180;2023-02-01T00:26:51;28.47;;;8.57;;
20669;SDS011;10494;50.868;4.180;2023-02-01T00:29:18;29.73;;;7.93;;
20669;SDS011;10494;50.868;4.180;2023-02-01T00:31:45;28.17;;;5.90;;
20669;SDS011;10494;50.868;4.180;2023-02-01T00:34:14;33.83;;;5.97;;
20669;SDS011;10494;50.868;4.180;2023-02-01T00:36:41;21.27;;;4.90;;
20669;SDS011;10494;50.868;4.180;2023-02-01T00:39:08;22.13;;;5.47;;
20669;SDS011;10494;50.868;4.180;2023-02-01T00:41:34;24.83;;;5.63;;
20669;SDS011;10494;50.868;4.180;2023-02-01T00:44:00;28.57;;;5.50;;
20669;SDS011;10494;50.868;4.180;2023-02-01T00:46:26;20.53;;;5.50;;
20669;SDS011;10494;50.868;4.180;2023-02-01T00:48:52;31.27;;;5.93;;
20669;SDS011;10494;50.868;4.180;2023-02-01T00:51:19;27.83;;;5.93;;
20669;SDS011;10494;50.868;4.180;2023-02-01T00:53:46;29.80;;;6.50;;
20669;SDS011;10494;50.868;4.180;2023-02-01T00:56:12;23.83;;;6.27;;
20669;SDS011;10494;50.868;4.180;2023-02-01T00:58:39;25.33;;;6.37;;
20669;SDS011;10494;50.868;4.180;2023-02-01T01:03:36;37.97;;;9.03;;
20669;SDS011;10494;50.868;4.180;2023-02-01T01:06:05;25.50;;;6.50;;
20669;SDS011;10494;50.868;4.180;2023-02-01T01:08:33;20.93;;;6.43;;
20669;SDS011;10494;50.868;4.180;2023-02-01T01:11:03;27.97;;;6.00;;
20669;SDS011;10494;50.868;4.180;2023-02-01T01:13:30;29.47;;;7.23;;
20669;SDS011;10494;50.868;4.180;2023-02-01T01:15:56;23.77;;;6.03;;
20669;SDS011;10494;50.868;4.180;2023-02-01T01:18:26;29.13;;;6.67;;
20669;SDS011;10494;50.868;4.180;2023-02-01T01:20:52;22.53;;;6.03;;
20669;SDS011;10494;50.868;4.180;2023-02-01T01:23:17;21.30;;;5.13;;
20669;SDS011;10494;50.868;4.180;2023-02-01T01:25:43;17.77;;;5.17;;
20669;SDS011;10494;50.868;4.180;2023-02-01T01:28:08;28.97;;;5.77;;
20669;SDS011;10494;50.868;4.180;2023-02-01T01:30:34;25.20;;;5.60;;
20669;SDS011;10494;50.868;4.180;2023-02-01T01:33:00;21.10;;;5.00;;
20669;SDS011;10494;50.868;4.180;2023-02-01T01:35:26;28.10;;;5.07;;
20669;SDS011;10494;50.868;4.180;2023-02-01T01:37:55;19.70;;;4.77;;
20669;SDS011;10494;50.868;4.180;2023-02-01T01:40:21;26.77;;;4.80;;
20669;SDS011;10494;50.868;4.180;2023-02-01T01:42:46;19.67;;;5.63;;
20669;SDS011;10494;50.868;4.180;2023-02-01T01:45:30;31.03;;;5.23;;
20669;SDS011;10494;50.868;4.180;2023-02-01T01:48:02;19.77;;;4.90;;
20669;SDS011;10494;50.868;4.180;2023-02-01T01:50:33;25.27;;;4.73;;
20669;SDS011;10494;50.868;4.180;2023-02-01T01:53:02;24.27;;;5.03;;
20669;SDS011;10494;50.868;4.180;2023-02-01T01:55:31;21.33;;;5.23;;
20669;SDS011;10494;50.868;4.180;2023-02-01T01:58:02;27.87;;;5.33;;
20669;SDS011;10494;50.868;4.180;2023-02-01T02:00:31;22.50;;;4.80;;
20669;SDS011;10494;50.868;4.180;2023-02-01T02:03:03;30.57;;;5.70;;
20669;SDS011;10494;50.868;4.180;2023-02-01T02:05:36;19.90;;;4.03;;
20669;SDS011;10494;50.868;4.180;2023-02-01T02:08:02;24.70;;;4.37;;
20669;SDS011;10494;50.868;4.180;2023-02-01T02:10:28;22.23;;;5.07;;
20669;SDS011;10494;50.868;4.180;2023-02-01T02:13:13;16.70;;;4.67;;
20669;SDS011;10494;50.868;4.180;2023-02-01T02:15:42;25.00;;;4.80;;
20669;SDS011;10494;50.868;4.180;2023-02-01T02:18:19;24.97;;;5.10;;
20669;SDS011;10494;50.868;4.180;2023-02-01T02:26:41;18.23;;;5.17;;
20669;SDS011;10494;50.868;4.180;2023-02-01T02:37:55;21.87;;;5.60;;
20669;SDS011;10494;50.868;4.180;2023-02-01T02:40:36;22.43;;;4.93;;
20669;SDS011;10494;50.868;4.180;2023-02-01T02:46:01;34.67;;;5.77;;
20669;SDS011;10494;50.868;4.180;2023-02-01T02:49:05;24.57;;;4.63;;
20669;SDS011;10494;50.868;4.180;2023-02-01T02:51:37;23.33;;;4.60;;
20669;SDS011;10494;50.868;4.180;2023-02-01T02:54:33;26.17;;;4.77;;
20669;SDS011;10494;50.868;4.180;2023-02-01T02:57:13;21.47;;;4.87;;
20669;SDS011;10494;50.868;4.180;2023-02-01T03:00:03;20.03;;;4.10;;
20669;SDS011;10494;50.868;4.180;2023-02-01T03:02:52;18.70;;;3.93;;
20669;SDS011;10494;50.868;4.180;2023-02-01T03:05:40;24.70;;;4.97;;
20669;SDS011;10494;50.868;4.180;2023-02-01T03:08:13;23.17;;;5.37;;
20669;SDS011;10494;50.868;4.180;2023-02-01T03:21:26;19.03;;;4.30;;
20669;SDS011;10494;50.868;4.180;2023-02-01T03:24:10;22.67;;;4.27;;
20669;SDS011;10494;50.868;4.180;2023-02-01T03:26:42;23.17;;;4.93;;
20669;SDS011;10494;50.868;4.180;2023-02-01T03:29:17;24.03;;;4.20;;
20669;SDS011;10494;50.868;4.180;2023-02-01T03:31:47;20.63;;;4.23;;
20669;SDS011;10494;50.868;4.180;2023-02-01T03:34:13;15.87;;;3.83;;
20669;SDS011;10494;50.868;4.180;2023-02-01T03:36:44;21.27;;;4.60;;
20669;SDS011;10494;50.868;4.180;2023-02-01T03:39:31;22.87;;;4.53;;
20669;SDS011;10494;50.868;4.180;2023-02-01T03:42:14;27.77;;;4.07;;
20669;SDS011;10494;50.868;4.180;2023-02-01T03:44:49;22.77;;;3.67;;
20669;SDS011;10494;50.868;4.180;2023-02-01T03:47:26;21.00;;;4.03;;
20669;SDS011;10494;50.868;4.180;2023-02-01T03:49:57;26.87;;;4.30;;
20669;SDS011;10494;50.868;4.180;2023-02-01T03:52:28;18.13;;;4.07;;
20669;SDS011;10494;50.868;4.180;2023-02-01T03:55:15;23.73;;;3.93;;
20669;SDS011;10494;50.868;4.180;2023-02-01T03:57:46;27.97;;;5.20;;
20669;SDS011;10494;50.868;4.180;2023-02-01T04:00:19;28.00;;;4.80;;
20669;SDS011;10494;50.868;4.180;2023-02-01T04:02:50;23.10;;;4.20;;
20669;SDS011;10494;50.868;4.180;2023-02-01T04:05:17;23.83;;;4.50;;
20669;SDS011;10494;50.868;4.180;2023-02-01T04:07:42;24.00;;;4.57;;
20669;SDS011;10494;50.868;4.180;2023-02-01T04:10:08;18.77;;;3.73;;
20669;SDS011;10494;50.868;4.180;2023-02-01T04:12:35;28.13;;;5.53;;
20669;SDS011;10494;50.868;4.180;2023-02-01T04:15:01;17.57;;;4.00;;
20669;SDS011;10494;50.868;4.180;2023-02-01T04:17:26;22.80;;;3.67;;
20669;SDS011;10494;50.868;4.180;2023-02-01T04:19:52;21.87;;;4.47;;
20669;SDS011;10494;50.868;4.180;2023-02-01T04:22:18;24.27;;;4.23;;
20669;SDS011;10494;50.868;4.180;2023-02-01T04:24:43;24.70;;;4.47;;
20669;SDS011;10494;50.868;4.180;2023-02-01T04:27:09;24.37;;;4.73;;
20669;SDS011;10494;50.868;4.180;2023-02-01T04:29:35;33.00;;;4.63;;
20669;SDS011;10494;50.868;4.180;2023-02-01T04:32:00;25.53;;;4.80;;
20669;SDS011;10494;50.868;4.180;2023-02-01T04:34:26;22.70;;;3.73;;
20669;SDS011;10494;50.868;4.180;2023-02-01T04:36:52;18.07;;;4.47;;
20669;SDS011;10494;50.868;4.180;2023-02-01T04:39:17;22.90;;;4.27;;
20669;SDS011;10494;50.868;4.180;2023-02-01T04:41:43;21.27;;;4.10;;
20669;SDS011;10494;50.868;4.180;2023-02-01T04:44:15;27.07;;;4.43;;
20669;SDS011;10494;50.868;4.180;2023-02-01T04:46:42;28.20;;;4.93;;
20669;SDS011;10494;50.868;4.180;2023-02-01T04:49:09;21.33;;;3.90;;
20669;SDS011;10494;50.868;4.180;2023-02-01T04:51:35;21.83;;;3.93;;
20669;SDS011;10494;50.868;4.180;2023-02-01T04:54:01;26.47;;;4.33;;
20669;SDS011;10494;50.868;4.180;2023-02-01T04:56:27;23.70;;;4.43;;
20669;SDS011;10494;50.868;4.180;2023-02-01T04:58:52;26.57;;;4.87;;
20669;SDS011;10494;50.868;4.180;2023-02-01T05:01:18;28.60;;;4.73;;
20669;SDS011;10494;50.868;4.180;2023-02-01T05:03:44;25.57;;;4.17;;
20669;SDS011;10494;50.868;4.180;2023-02-01T05:06:09;17.83;;;4.03;;
20669;SDS011;10494;50.868;4.180;2023-02-01T05:08:35;21.90;;;4.47;;
20669;SDS011;10494;50.868;4.180;2023-02-01T05:11:01;28.83;;;4.17;;
20669;SDS011;10494;50.868;4.180;2023-02-01T05:13:29;19.43;;;4.83;;
20669;SDS011;10494;50.868;4.180;2023-02-01T05:16:14;16.23;;;3.87;;
20669;SDS011;10494;50.868;4.180;2023-02-01T05:18:40;14.00;;;3.33;;
20669;SDS011;10494;50.868;4.180;2023-02-01T05:21:05;24.00;;;4.27;;
20669;SDS011;10494;50.868;4.180;2023-02-01T05:23:31;20.03;;;3.87;;
20669;SDS011;10494;50.868;4.180;2023-02-01T05:26:00;25.93;;;5.43;;
20669;SDS011;10494;50.868;4.180;2023-02-01T05:28:27;31.03;;;4.57;;
20669;SDS011;10494;50.868;4.180;2023-02-01T05:30:53;20.23;;;3.70;;
20669;SDS011;10494;50.868;4.180;2023-02-01T05:33:19;25.97;;;3.67;;
20669;SDS011;10494;50.868;4.180;2023-02-01T05:35:45;20.67;;;3.60;;
20669;SDS011;10494;50.868;4.180;2023-02-01T05:38:10;18.20;;;4.10;;
20669;SDS011;10494;50.868;4.180;2023-02-01T05:40:36;26.27;;;4.87;;
20669;SDS011;10494;50.868;4.180;2023-02-01T05:43:01;36.60;;;5.93;;
20669;SDS011;10494;50.868;4.180;2023-02-01T05:45:27;23.47;;;4.07;;
20669;SDS011;10494;50.868;4.180;2023-02-01T05:47:53;33.43;;;6.03;;
20669;SDS011;10494;50.868;4.180;2023-02-01T05:50:19;26.40;;;4.53;;
20669;SDS011;10494;50.868;4.180;2023-02-01T05:52:44;19.23;;;4.73;;
20669;SDS011;10494;50.868;4.180;2023-02-01T05:55:10;24.27;;;4.27;;
20669;SDS011;10494;50.868;4.180;2023-02-01T05:57:36;25.47;;;4.93;;
20669;SDS011;10494;50.868;4.180;2023-02-01T06:00:03;31.37;;;4.77;;
20669;SDS011;10494;50.868;4.180;2023-02-01T06:02:29;28.73;;;5.87;;
20669;SDS011;10494;50.868;4.180;2023-02-01T06:04:54;19.63;;;5.63;;
20669;SDS011;10494;50.868;4.180;2023-02-01T06:07:20;32.20;;;5.03;;
20669;SDS011;10494;50.868;4.180;2023-02-01T06:09:45;23.17;;;5.37;;
20669;SDS011;10494;50.868;4.180;2023-02-01T06:12:11;29.57;;;5.47;;
20669;SDS011;10494;50.868;4.180;2023-02-01T06:14:37;22.87;;;4.17;;
20669;SDS011;10494;50.868;4.180;2023-02-01T06:17:02;27.87;;;5.13;;
20669;SDS011;10494;50.868;4.180;2023-02-01T06:19:28;18.10;;;4.47;;
20669;SDS011;10494;50.868;4.180;2023-02-01T06:21:54;19.47;;;3.77;;
20669;SDS011;10494;50.868;4.180;2023-02-01T06:24:19;21.67;;;4.40;;
20669;SDS011;10494;50.868;4.180;2023-02-01T06:26:45;21.60;;;4.10;;
20669;SDS011;10494;50.868;4.180;2023-02-01T06:29:10;23.20;;;4.03;;
20669;SDS011;10494;50.868;4.180;2023-02-01T06:31:36;30.60;;;4.90;;
20669;SDS011;10494;50.868;4.180;2023-02-01T06:34:02;23.03;;;4.63;;
20669;SDS011;10494;50.868;4.180;2023-02-01T06:36:28;24.50;;;4.50;;
20669;SDS011;10494;50.868;4.180;2023-02-01T06:38:55;24.77;;;5.70;;
20669;SDS011;10494;50.868;4.180;2023-02-01T06:41:24;21.93;;;4.70;;
20669;SDS011;10494;50.868;4.180;2023-02-01T06:43:50;19.57;;;4.13;;
20669;SDS011;10494;50.868;4.180;2023-02-01T06:46:16;25.17;;;4.30;;
20669;SDS011;10494;50.868;4.180;2023-02-01T06:48:42;30.50;;;4.93;;
20669;SDS011;10494;50.868;4.180;2023-02-01T06:54:05;26.13;;;4.67;;
20669;SDS011;10494;50.868;4.180;2023-02-01T06:56:31;26.27;;;4.13;;
20669;SDS011;10494;50.868;4.180;2023-02-01T06:58:56;18.47;;;4.33;;
20669;SDS011;10494;50.868;4.180;2023-02-01T07:01:22;21.50;;;4.73;;
20669;SDS011;10494;50.868;4.180;2023-02-01T07:03:51;26.40;;;5.13;;
20669;SDS011;10494;50.868;4.180;2023-02-01T07:06:17;21.73;;;5.53;;
20669;SDS011;10494;50.868;4.180;2023-02-01T07:08:43;32.80;;;4.40;;
20669;SDS011;10494;50.868;4.180;2023-02-01T07:11:10;22.83;;;4.77;;
20669;SDS011;10494;50.868;4.180;2023-02-01T07:13:37;24.87;;;4.17;;
20669;SDS011;10494;50.868;4.180;2023-02-01T07:16:04;22.63;;;5.40;;
20669;SDS011;10494;50.868;4.180;2023-02-01T07:18:32;25.03;;;5.70;;
20669;SDS011;10494;50.868;4.180;2023-02-01T07:20:58;28.53;;;6.03;;
20669;SDS011;10494;50.868;4.180;2023-02-01T07:23:24;24.80;;;5.37;;
20669;SDS011;10494;50.868;4.180;2023-02-01T07:25:57;33.27;;;5.73;;
20669;SDS011;10494;50.868;4.180;2023-02-01T07:28:24;33.60;;;4.77;;
20669;SDS011;10494;50.868;4.180;2023-02-01T07:30:51;24.70;;;6.47;;
20669;SDS011;10494;50.868;4.180;2023-02-01T07:33:20;29.47;;;5.20;;
20669;SDS011;10494;50.868;4.180;2023-02-01T07:35:47;29.77;;;4.70;;
20669;SDS011;10494;50.868;4.180;2023-02-01T07:38:14;31.60;;;5.13;;
20669;SDS011;10494;50.868;4.180;2023-02-01T07:40:40;23.60;;;5.63;;
20669;SDS011;10494;50.868;4.180;2023-02-01T07:43:06;20.90;;;5.10;;
20669;SDS011;10494;50.868;4.180;2023-02-01T07:45:32;24.20;;;6.20;;
20669;SDS011;10494;50.868;4.180;2023-02-01T07:48:00;18.27;;;3.80;;
20669;SDS011;10494;50.868;4.180;2023-02-01T07:50:26;30.20;;;4.60;;
20669;SDS011;10494;50.868;4.180;2023-02-01T07:52:51;20.47;;;5.40;;
20669;SDS011;10494;50.868;4.180;2023-02-01T07:55:18;25.13;;;4.07;;
20669;SDS011;10494;50.868;4.180;2023-02-01T07:57:44;22.73;;;5.57;;
20669;SDS011;10494;50.868;4.180;2023-02-01T08:00:10;25.97;;;4.97;;
20669;SDS011;10494;50.868;4.180;2023-02-01T08:02:57;34.03;;;5.20;;
20669;SDS011;10494;50.868;4.180;2023-02-01T08:05:23;24.73;;;4.17;;
20669;SDS011;10494;50.868;4.180;2023-02-01T08:07:49;28.87;;;4.10;;
20669;SDS011;10494;50.868;4.180;2023-02-01T08:10:15;26.60;;;4.27;;
20669;SDS011;10494;50.868;4.180;2023-02-01T08:12:42;17.27;;;3.77;;
20669;SDS011;10494;50.868;4.180;2023-02-01T08:15:08;25.47;;;3.97;;
20669;SDS011;10494;50.868;4.180;2023-02-01T08:17:34;25.67;;;3.77;;
20669;SDS011;10494;50.868;4.180;2023-02-01T08:19:59;23.70;;;4.53;;
20669;SDS011;10494;50.868;4.180;2023-02-01T08:22:25;24.00;;;4.73;;
20669;SDS011;10494;50.868;4.180;2023-02-01T08:24:51;25.03;;;4.37;;
20669;SDS011;10494;50.868;4.180;2023-02-01T08:27:16;27.73;;;4.43;;
20669;SDS011;10494;50.868;4.180;2023-02-01T08:29:42;23.37;;;4.60;;
20669;SDS011;10494;50.868;4.180;2023-02-01T08:32:08;31.47;;;5.23;;
20669;SDS011;10494;50.868;4.180;2023-02-01T08:34:33;26.73;;;5.17;;
20669;SDS011;10494;50.868;4.180;2023-02-01T08:36:59;23.07;;;4.67;;
20669;SDS011;10494;50.868;4.180;2023-02-01T08:39:27;22.20;;;4.13;;
20669;SDS011;10494;50.868;4.180;2023-02-01T08:41:53;15.83;;;3.80;;
20669;SDS011;10494;50.868;4.180;2023-02-01T08:44:37;20.67;;;4.50;;
20669;SDS011;10494;50.868;4.180;2023-02-01T08:47:06;22.37;;;4.47;;
20669;SDS011;10494;50.868;4.180;2023-02-01T08:49:49;22.80;;;5.30;;
20669;SDS011;10494;50.868;4.180;2023-02-01T08:52:14;23.27;;;5.07;;
20669;SDS011;10494;50.868;4.180;2023-02-01T08:54:40;25.30;;;5.83;;
20669;SDS011;10494;50.868;4.180;2023-02-01T08:57:06;19.57;;;3.60;;
20669;SDS011;10494;50.868;4.180;2023-02-01T08:59:32;23.50;;;5.53;;
20669;SDS011;10494;50.868;4.180;2023-02-01T09:01:58;24.50;;;4.13;;
20669;SDS011;10494;50.868;4.180;2023-02-01T09:04:23;25.40;;;5.30;;
20669;SDS011;10494;50.868;4.180;2023-02-01T09:06:49;26.93;;;4.27;;
20669;SDS011;10494;50.868;4.180;2023-02-01T09:09:15;21.30;;;4.73;;
20669;SDS011;10494;50.868;4.180;2023-02-01T09:11:40;17.73;;;4.03;;
20669;SDS011;10494;50.868;4.180;2023-02-01T09:14:06;24.50;;;4.13;;
20669;SDS011;10494;50.868;4.180;2023-02-01T09:16:31;22.65;;;4.35;;
20669;SDS011;10494;50.868;4.180;2023-02-01T09:18:57;16.65;;;3.38;;
20669;SDS011;10494;50.868;4.180;2023-02-01T09:21:23;19.70;;;3.88;;
20669;SDS011;10494;50.868;4.180;2023-02-01T09:23:50;18.02;;;3.83;;
20669;SDS011;10494;50.868;4.180;2023-02-01T09:26:16;17.08;;;3.80;;
20669;SDS011;10494;50.868;4.180;2023-02-01T09:28:41;19.02;;;4.13;;
20669;SDS011;10494;50.868;4.180;2023-02-01T09:31:07;19.98;;;4.03;;
20669;SDS011;10494;50.868;4.180;2023-02-01T09:33:32;20.95;;;4.28;;
20669;SDS011;10494;50.868;4.180;2023-02-01T09:35:59;23.23;;;4.05;;
20669;SDS011;10494;50.868;4.180;2023-02-01T09:38:26;16.67;;;3.63;;
20669;SDS011;10494;50.868;4.180;2023-02-01T09:40:53;26.65;;;3.92;;
20669;SDS011;10494;50.868;4.180;2023-02-01T09:46:24;16.00;;;3.72;;
20669;SDS011;10494;50.868;4.180;2023-02-01T09:48:54;22.35;;;4.25;;
20669;SDS011;10494;50.868;4.180;2023-02-01T09:51:32;22.08;;;3.85;;
20669;SDS011;10494;50.868;4.180;2023-02-01T09:56:39;20.27;;;3.92;;
20669;SDS011;10494;50.868;4.180;2023-02-01T10:01:44;21.55;;;4.28;;
20669;SDS011;10494;50.868;4.180;2023-02-01T10:04:11;27.92;;;4.50;;
20669;SDS011;10494;50.868;4.180;2023-02-01T10:20:32;21.65;;;3.67;;
20669;SDS011;10494;50.868;4.180;2023-02-01T10:26:15;20.67;;;3.88;;
20669;SDS011;10494;50.868;4.180;2023-02-01T10:28:58;19.42;;;4.20;;
20669;SDS011;10494;50.868;4.180;2023-02-01T10:31:26;18.98;;;3.95;;
20669;SDS011;10494;50.868;4.180;2023-02-01T10:33:57;16.92;;;3.35;;
20669;SDS011;10494;50.868;4.180;2023-02-01T10:36:32;19.10;;;3.75;;
20669;SDS011;10494;50.868;4.180;2023-02-01T10:39:03;18.85;;;4.28;;
20669;SDS011;10494;50.868;4.180;2023-02-01T10:41:33;18.17;;;3.65;;
20669;SDS011;10494;50.868;4.180;2023-02-01T10:44:05;14.82;;;3.65;;
20669;SDS011;10494;50.868;4.180;2023-02-01T10:46:36;28.27;;;4.35;;
20669;SDS011;10494;50.868;4.180;2023-02-01T10:49:02;19.67;;;3.90;;
20669;SDS011;10494;50.868;4.180;2023-02-01T10:51:30;19.08;;;3.58;;
20669;SDS011;10494;50.868;4.180;2023-02-01T10:54:17;21.02;;;3.45;;
20669;SDS011;10494;50.868;4.180;2023-02-01T10:56:48;20.23;;;3.22;;
20669;SDS011;10494;50.868;4.180;2023-02-01T10:59:24;21.95;;;3.72;;
20669;SDS011;10494;50.868;4.180;2023-02-01T11:01:50;22.15;;;4.53;;
20669;SDS011;10494;50.868;4.180;2023-02-01T11:04:24;15.82;;;3.22;;
20669;SDS011;10494;50.868;4.180;2023-02-01T11:07:05;19.90;;;3.25;;
20669;SDS011;10494;50.868;4.180;2023-02-01T11:09:41;21.75;;;3.63;;
20669;SDS011;10494;50.868;4.180;2023-02-01T11:15:21;25.98;;;4.13;;
20669;SDS011;10494;50.868;4.180;2023-02-01T11:17:49;22.38;;;3.42;;
20669;SDS011;10494;50.868;4.180;2023-02-01T11:20:35;17.27;;;2.80;;
20669;SDS011;10494;50.868;4.180;2023-02-01T11:23:05;20.48;;;3.78;;
20669;SDS011;10494;50.868;4.180;2023-02-01T11:25:37;15.90;;;3.10;;
20669;SDS011;10494;50.868;4.180;2023-02-01T11:28:03;18.52;;;3.30;;
20669;SDS011;10494;50.868;4.180;2023-02-01T11:30:34;13.35;;;3.17;;
20669;SDS011;10494;50.868;4.180;2023-02-01T11:33:03;17.10;;;2.92;;
20669;SDS011;10494;50.868;4.180;2023-02-01T11:35:30;13.32;;;3.15;;
20669;SDS011;10494;50.868;4.180;2023-02-01T11:37:57;17.00;;;3.47;;
20669;SDS011;10494;50.868;4.180;2023-02-01T11:40:29;14.45;;;3.38;;
20669;SDS011;10494;50.868;4.180;2023-02-01T11:45:40;17.27;;;3.00;;
20669;SDS011;10494;50.868;4.180;2023-02-01T11:48:13;16.70;;;2.70;;
20669;SDS011;10494;50.868;4.180;2023-02-01T11:50:45;12.63;;;3.88;;
20669;SDS011;10494;50.868;4.180;2023-02-01T12:01:41;12.90;;;2.55;;
20669;SDS011;10494;50.868;4.180;2023-02-01T12:09:56;12.48;;;2.63;;
20669;SDS011;10494;50.868;4.180;2023-02-01T12:26:04;15.90;;;2.92;;
20669;SDS011;10494;50.868;4.180;2023-02-01T12:29:11;15.77;;;3.58;;
20669;SDS011;10494;50.868;4.180;2023-02-01T12:46:10;27.20;;;3.15;;
20669;SDS011;10494;50.868;4.180;2023-02-01T12:49:04;13.35;;;2.00;;
20669;SDS011;10494;50.868;4.180;2023-02-01T12:51:37;10.13;;;2.25;;
20669;SDS011;10494;50.868;4.180;2023-02-01T12:57:12;13.05;;;2.83;;
20669;SDS011;10494;50.868;4.180;2023-02-01T12:59:35;8.65;;;2.33;;
20669;SDS011;10494;50.868;4.180;2023-02-01T13:02:06;19.38;;;2.92;;
20669;SDS011;10494;50.868;4.180;2023-02-01T13:04:56;19.30;;;2.50;;
20669;SDS011;10494;50.868;4.180;2023-02-01T13:08:04;12.30;;;2.08;;
20669;SDS011;10494;50.868;4.180;2023-02-01T13:10:24;15.88;;;2.70;;
20669;SDS011;10494;50.868;4.180;2023-02-01T13:13:19;10.15;;;2.17;;
20669;SDS011;10494;50.868;4.180;2023-02-01T13:15:51;13.88;;;2.83;;
20669;SDS011;10494;50.868;4.180;2023-02-01T13:18:41;10.93;;;2.30;;
20669;SDS011;10494;50.868;4.180;2023-02-01T13:21:12;9.95;;;2.70;;
20669;SDS011;10494;50.868;4.180;2023-02-01T13:23:42;14.25;;;2.47;;
20669;SDS011;10494;50.868;4.180;2023-02-01T13:26:11;12.85;;;2.30;;
20669;SDS011;10494;50.868;4.180;2023-02-01T13:28:40;12.20;;;2.05;;
20669;SDS011;10494;50.868;4.180;2023-02-01T13:34:38;13.02;;;2.55;;
20669;SDS011;10494;50.868;4.180;2023-02-01T13:42:51;17.98;;;2.70;;
20669;SDS011;10494;50.868;4.180;2023-02-01T13:45:20;8.75;;;1.88;;
20669;SDS011;10494;50.868;4.180;2023-02-01T13:47:55;13.60;;;2.28;;
20669;SDS011;10494;50.868;4.180;2023-02-01T13:50:27;17.40;;;3.20;;
20669;SDS011;10494;50.868;4.180;2023-02-01T13:52:59;21.50;;;2.45;;
20669;SDS011;10494;50.868;4.180;2023-02-01T13:55:34;11.50;;;2.20;;
20669;SDS011;10494;50.868;4.180;2023-02-01T13:58:17;11.52;;;2.55;;
20669;SDS011;10494;50.868;4.180;2023-02-01T14:00:48;10.52;;;2.72;;
20669;SDS011;10494;50.868;4.180;2023-02-01T14:03:18;10.45;;;2.25;;
20669;SDS011;10494;50.868;4.180;2023-02-01T14:08:15;16.35;;;2.83;;
20669;SDS011;10494;50.868;4.180;2023-02-01T14:11:02;19.15;;;2.95;;
20669;SDS011;10494;50.868;4.180;2023-02-01T14:23:47;14.80;;;2.60;;
20669;SDS011;10494;50.868;4.180;2023-02-01T14:44:48;15.73;;;2.97;;
20669;SDS011;10494;50.868;4.180;2023-02-01T14:58:32;16.70;;;3.47;;
20669;SDS011;10494;50.868;4.180;2023-02-01T15:06:39;16.58;;;3.03;;
20669;SDS011;10494;50.868;4.180;2023-02-01T15:11:58;15.43;;;2.75;;
20669;SDS011;10494;50.868;4.180;2023-02-01T15:17:39;21.42;;;4.45;;
20669;SDS011;10494;50.868;4.180;2023-02-01T15:22:42;11.48;;;2.50;;
20669;SDS011;10494;50.868;4.180;2023-02-01T15:25:18;20.02;;;3.28;;
20669;SDS011;10494;50.868;4.180;2023-02-01T15:27:45;23.80;;;3.80;;
20669;SDS011;10494;50.868;4.180;2023-02-01T15:30:19;17.75;;;3.03;;
20669;SDS011;10494;50.868;4.180;2023-02-01T15:32:46;11.32;;;2.80;;
20669;SDS011;10494;50.868;4.180;2023-02-01T15:38:34;18.40;;;3.67;;
20669;SDS011;10494;50.868;4.180;2023-02-01T15:41:03;17.20;;;3.05;;
20669;SDS011;10494;50.868;4.180;2023-02-01T15:46:33;13.30;;;2.92;;
20669;SDS011;10494;50.868;4.180;2023-02-01T15:49:02;23.50;;;3.90;;
20669;SDS011;10494;50.868;4.180;2023-02-01T15:51:29;19.58;;;3.53;;
20669;SDS011;10494;50.868;4.180;2023-02-01T15:54:07;14.00;;;3.13;;
20669;SDS011;10494;50.868;4.180;2023-02-01T15:56:44;25.85;;;4.80;;
20669;SDS011;10494;50.868;4.180;2023-02-01T15:59:18;18.02;;;3.63;;
20669;SDS011;10494;50.868;4.180;2023-02-01T16:01:46;21.90;;;4.05;;
20669;SDS011;10494;50.868;4.180;2023-02-01T16:04:26;20.08;;;3.80;;
20669;SDS011;10494;50.868;4.180;2023-02-01T16:06:57;22.23;;;3.75;;
20669;SDS011;10494;50.868;4.180;2023-02-01T16:09:48;18.35;;;3.50;;
20669;SDS011;10494;50.868;4.180;2023-02-01T16:12:26;19.77;;;3.75;;
20669;SDS011;10494;50.868;4.180;2023-02-01T16:15:06;25.05;;;5.25;;
20669;SDS011;10494;50.868;4.180;2023-02-01T16:17:32;29.90;;;9.48;;
20669;SDS011;10494;50.868;4.180;2023-02-01T16:19:57;21.15;;;5.53;;
20669;SDS011;10494;50.868;4.180;2023-02-01T16:22:23;11.93;;;3.67;;
20669;SDS011;10494;50.868;4.180;2023-02-01T16:24:49;21.30;;;3.80;;
20669;SDS011;10494;50.868;4.180;2023-02-01T16:27:15;15.88;;;3.40;;
20669;SDS011;10494;50.868;4.180;2023-02-01T16:29:41;16.55;;;3.50;;
20669;SDS011;10494;50.868;4.180;2023-02-01T16:32:08;14.68;;;3.22;;
20669;SDS011;10494;50.868;4.180;2023-02-01T16:34:39;25.13;;;4.20;;
20669;SDS011;10494;50.868;4.180;2023-02-01T16:37:05;35.85;;;7.43;;
20669;SDS011;10494;50.868;4.180;2023-02-01T16:39:34;28.50;;;5.60;;
20669;SDS011;10494;50.868;4.180;2023-02-01T16:42:00;25.15;;;5.53;;
20669;SDS011;10494;50.868;4.180;2023-02-01T16:44:30;31.08;;;6.78;;
20669;SDS011;10494;50.868;4.180;2023-02-01T16:46:55;19.73;;;3.87;;
20669;SDS011;10494;50.868;4.180;2023-02-01T16:49:22;23.10;;;5.75;;
20669;SDS011;10494;50.868;4.180;2023-02-01T16:51:49;28.08;;;8.50;;
20669;SDS011;10494;50.868;4.180;2023-02-01T16:54:20;23.03;;;6.73;;
20669;SDS011;10494;50.868;4.180;2023-02-01T16:56:46;27.08;;;8.18;;
20669;SDS011;10494;50.868;4.180;2023-02-01T16:59:12;18.20;;;5.50;;
20669;SDS011;10494;50.868;4.180;2023-02-01T17:01:39;27.98;;;6.70;;
20669;SDS011;10494;50.868;4.180;2023-02-01T17:04:06;19.93;;;3.77;;
20669;SDS011;10494;50.868;4.180;2023-02-01T17:06:32;17.98;;;3.67;;
20669;SDS011;10494;50.868;4.180;2023-02-01T17:09:01;24.23;;;4.18;;
20669;SDS011;10494;50.868;4.180;2023-02-01T17:11:28;17.80;;;3.50;;
20669;SDS011;10494;50.868;4.180;2023-02-01T17:14:04;22.13;;;4.68;;
20669;SDS011;10494;50.868;4.180;2023-02-01T17:16:43;21.38;;;6.28;;
20669;SDS011;10494;50.868;4.180;2023-02-01T17:19:12;21.47;;;4.70;;
20669;SDS011;10494;50.868;4.180;2023-02-01T17:21:42;19.75;;;3.88;;
20669;SDS011;10494;50.868;4.180;2023-02-01T17:24:11;22.47;;;4.07;;
20669;SDS011;10494;50.868;4.180;2023-02-01T17:26:39;25.73;;;4.15;;
20669;SDS011;10494;50.868;4.180;2023-02-01T17:29:05;22.10;;;4.93;;
20669;SDS011;10494;50.868;4.180;2023-02-01T17:31:30;18.20;;;3.70;;
20669;SDS011;10494;50.868;4.180;2023-02-01T17:33:59;20.57;;;4.33;;
20669;SDS011;10494;50.868;4.180;2023-02-01T17:36:24;19.43;;;5.10;;
20669;SDS011;10494;50.868;4.180;2023-02-01T17:38:50;23.63;;;4.40;;
20669;SDS011;10494;50.868;4.180;2023-02-01T17:41:16;23.20;;;4.83;;
20669;SDS011;10494;50.868;4.180;2023-02-01T17:43:41;17.47;;;3.80;;
20669;SDS011;10494;50.868;4.180;2023-02-01T17:46:11;21.13;;;4.47;;
20669;SDS011;10494;50.868;4.180;2023-02-01T17:48:42;24.77;;;4.40;;